Time;durP1;ratioP1;P1;durP2;ratioP2;P2;SDS_P1;SDS_P2;PMS_P1;PMS_P2;Temp;Humidity;BMP_temperature;BMP_pressure;BME280_temperature;BME280_humidity;BME280_pressure;Samples;Min_cycle;Max_cycle;Signal;HPM_P1;HPM_P2
2023/07/09 00:02:21;;;;;;;6.45;3.85;;;23.30;1.00;;;;;;7389416;19;20010;-68
2023/07/09 00:04:52;;;;;;;5.35;3.78;;;23.20;1.00;;;;;;7389036;19;20015;-68
2023/07/09 00:07:26;;;;;;;7.78;3.80;;;23.10;1.00;;;;;;7390065;19;20014;-68
2023/07/09 00:09:57;;;;;;;7.50;3.78;;;23.10;1.00;;;;;;7388814;19;20018;-69
2023/07/09 00:12:28;;;;;;;5.82;3.67;;;23.00;1.00;;;;;;7388535;19;20497;-69
2023/07/09 00:14:58;;;;;;;7.90;4.53;;;22.90;1.00;;;;;;7388667;19;20046;-68
2023/07/09 00:17:33;;;;;;;6.78;3.80;;;22.90;1.00;;;;;;7387756;19;20015;-69
2023/07/09 00:20:11;;;;;;;6.65;3.65;;;22.80;1.00;;;;;;7387992;19;20018;-69
2023/07/09 00:22:41;;;;;;;6.95;4.03;;;22.90;1.00;;;;;;7388770;19;20094;-68
2023/07/09 00:25:16;;;;;;;6.68;3.70;;;22.90;1.00;;;;;;7388546;19;20088;-68
2023/07/09 00:27:49;;;;;;;5.78;3.72;;;22.80;1.00;;;;;;7388805;19;20015;-67
2023/07/09 00:30:21;;;;;;;6.60;3.92;;;22.70;1.00;;;;;;7390609;19;20025;-69
2023/07/09 00:32:54;;;;;;;6.80;3.55;;;22.60;1.00;;;;;;7388296;19;20090;-69
2023/07/09 00:35:26;;;;;;;5.65;4.22;;;22.70;1.00;;;;;;7388336;19;20011;-68
2023/07/09 00:38:00;;;;;;;9.23;4.30;;;22.80;1.00;;;;;;7388268;19;20026;-70
2023/07/09 00:40:30;;;;;;;7.18;4.57;;;22.90;1.00;;;;;;7387455;19;20027;-68
2023/07/09 00:43:03;;;;;;;5.93;4.22;;;22.90;1.00;;;;;;7388293;19;20475;-68
2023/07/09 00:45:34;;;;;;;6.82;4.57;;;22.80;1.00;;;;;;7390860;19;20127;-68
2023/07/09 00:48:09;;;;;;;5.82;4.32;;;22.70;1.00;;;;;;7393508;19;20478;-69
2023/07/09 00:50:45;;;;;;;8.48;4.65;;;22.80;1.00;;;;;;7393903;19;20026;-68
2023/07/09 00:53:22;;;;;;;5.32;3.95;;;22.80;1.00;;;;;;7394415;19;20042;-68
2023/07/09 00:55:58;;;;;;;7.07;4.18;;;22.80;1.00;;;;;;7396186;19;20032;-68
2023/07/09 00:58:29;;;;;;;6.32;4.30;;;22.80;1.00;;;;;;7395514;19;20095;-69
2023/07/09 01:01:05;;;;;;;6.68;4.00;;;22.80;1.00;;;;;;7393705;19;20027;-69
2023/07/09 01:03:41;;;;;;;8.70;4.82;;;22.80;1.00;;;;;;7395361;19;20030;-69
2023/07/09 01:06:12;;;;;;;8.55;4.13;;;22.80;1.00;;;;;;7395173;19;20021;-68
2023/07/09 01:08:44;;;;;;;6.28;4.38;;;22.80;1.00;;;;;;7395422;19;20034;-69
2023/07/09 01:11:21;;;;;;;7.38;4.30;;;22.80;1.00;;;;;;7393102;19;20151;-69
2023/07/09 01:13:53;;;;;;;6.00;4.05;;;22.80;1.00;;;;;;7393393;19;20014;-69
2023/07/09 01:16:26;;;;;;;7.68;4.82;;;22.80;1.00;;;;;;7395221;19;20038;-67
2023/07/09 01:19:00;;;;;;;7.05;3.80;;;22.80;1.00;;;;;;7394946;19;20022;-70
2023/07/09 01:21:33;;;;;;;5.82;4.13;;;22.70;1.00;;;;;;7390802;19;20011;-69
2023/07/09 01:24:14;;;;;;;6.68;4.15;;;22.70;1.00;;;;;;7394178;19;20014;-68
2023/07/09 01:26:46;;;;;;;6.00;4.00;;;22.70;1.00;;;;;;7394393;19;20027;-68
2023/07/09 01:29:16;;;;;;;5.47;4.03;;;22.80;1.00;;;;;;7395331;19;20377;-68
2023/07/09 01:31:46;;;;;;;6.63;4.15;;;22.80;1.00;;;;;;7394503;19;20041;-68
2023/07/09 01:34:16;;;;;;;6.45;3.95;;;22.80;1.00;;;;;;7392085;19;20018;-68
2023/07/09 01:36:49;;;;;;;5.82;4.00;;;22.80;1.00;;;;;;7394281;19;20566;-69
2023/07/09 01:39:19;;;;;;;7.72;3.60;;;22.80;1.00;;;;;;7394376;19;20031;-68
2023/07/09 01:41:49;;;;;;;6.47;3.55;;;22.80;1.00;;;;;;7394168;19;20018;-69
2023/07/09 01:44:19;;;;;;;8.02;3.72;;;22.80;1.00;;;;;;7393584;19;20089;-68
2023/07/09 01:46:49;;;;;;;5.43;3.75;;;22.70;1.00;;;;;;7393980;19;20402;-68
2023/07/09 01:49:20;;;;;;;8.93;4.20;;;22.70;1.00;;;;;;7393251;19;20058;-68
2023/07/09 01:51:54;;;;;;;7.57;3.83;;;22.70;1.00;;;;;;7394039;19;20033;-67
2023/07/09 01:54:24;;;;;;;6.63;3.92;;;22.60;1.00;;;;;;7391937;19;20081;-69
2023/07/09 01:57:01;;;;;;;6.00;3.90;;;22.60;1.00;;;;;;7392036;19;20018;-67
2023/07/09 01:59:32;;;;;;;7.13;4.28;;;22.50;1.00;;;;;;7391802;19;20024;-68
2023/07/09 02:02:02;;;;;;;5.28;3.83;;;22.50;1.00;;;;;;7393777;19;20018;-69
2023/07/09 02:04:32;;;;;;;8.80;4.00;;;22.40;1.00;;;;;;7393041;19;20026;-69
2023/07/09 02:07:05;;;;;;;6.22;4.00;;;22.30;1.00;;;;;;7393511;19;20038;-68
2023/07/09 02:09:35;;;;;;;8.52;3.88;;;22.30;1.00;;;;;;7392330;19;20086;-68
2023/07/09 02:12:06;;;;;;;6.75;4.18;;;22.30;1.00;;;;;;7393077;19;20079;-68
2023/07/09 02:14:36;;;;;;;5.50;4.13;;;22.30;1.00;;;;;;7391551;19;20022;-68
2023/07/09 02:17:06;;;;;;;11.13;3.80;;;22.20;1.00;;;;;;7392963;19;20371;-68
2023/07/09 02:19:37;;;;;;;6.57;4.13;;;22.30;1.00;;;;;;7392581;19;20018;-68
2023/07/09 02:22:11;;;;;;;8.23;4.18;;;22.20;1.00;;;;;;7392810;19;20043;-68
2023/07/09 02:24:41;;;;;;;6.32;4.43;;;22.20;1.00;;;;;;7392241;19;20019;-68
2023/07/09 02:27:13;;;;;;;7.60;4.45;;;22.10;1.00;;;;;;7392376;19;20301;-68
2023/07/09 02:29:43;;;;;;;5.47;3.75;;;22.00;1.00;;;;;;7393456;19;20014;-68
2023/07/09 02:32:20;;;;;;;5.72;3.75;;;22.00;1.00;;;;;;7393190;19;20018;-68
2023/07/09 02:34:52;;;;;;;7.47;4.03;;;22.00;1.00;;;;;;7390782;19;20007;-68
2023/07/09 02:37:27;;;;;;;7.72;4.20;;;22.00;1.00;;;;;;7390641;19;20354;-68
2023/07/09 02:39:57;;;;;;;6.30;3.78;;;21.90;1.00;;;;;;7391400;19;20014;-68
2023/07/09 02:42:27;;;;;;;8.43;3.85;;;21.90;1.00;;;;;;7392279;19;20075;-68
2023/07/09 02:44:57;;;;;;;6.53;4.35;;;21.80;1.00;;;;;;7392986;19;20010;-69
2023/07/09 02:47:27;;;;;;;7.32;3.88;;;21.80;1.00;;;;;;7392281;19;20086;-68
2023/07/09 02:49:57;;;;;;;6.15;4.63;;;21.90;1.00;;;;;;7389505;19;20029;-68
2023/07/09 02:52:29;;;;;;;7.10;4.57;;;21.80;1.00;;;;;;7391877;19;20038;-68
2023/07/09 02:54:59;;;;;;;7.40;3.97;;;21.90;1.00;;;;;;7390336;19;20018;-68
2023/07/09 02:57:29;;;;;;;7.78;4.10;;;21.80;1.00;;;;;;7391357;19;20710;-68
2023/07/09 02:59:59;;;;;;;5.60;4.07;;;21.70;1.00;;;;;;7390155;19;20022;-68
2023/07/09 03:02:29;;;;;;;5.28;4.07;;;21.60;1.00;;;;;;7391190;19;20034;-69
2023/07/09 03:04:59;;;;;;;7.43;4.50;;;21.70;1.00;;;;;;7391010;19;20120;-68
2023/07/09 03:07:31;;;;;;;5.10;3.92;;;21.70;1.00;;;;;;7391793;19;20026;-69
2023/07/09 03:10:01;;;;;;;5.93;3.92;;;21.70;1.00;;;;;;7388339;19;20483;-68
2023/07/09 03:12:31;;;;;;;7.63;3.90;;;21.80;1.00;;;;;;7390613;19;20478;-67
2023/07/09 03:15:02;;;;;;;5.90;3.75;;;21.80;1.00;;;;;;7389644;19;20478;-67
2023/07/09 03:17:31;;;;;;;6.90;4.57;;;21.80;1.00;;;;;;7391351;19;20093;-68
2023/07/09 03:20:02;;;;;;;9.50;4.10;;;21.80;1.00;;;;;;7389899;19;20514;-67
2023/07/09 03:22:35;;;;;;;7.80;3.90;;;21.80;1.00;;;;;;7390707;19;20042;-68
2023/07/09 03:25:05;;;;;;;7.10;4.07;;;21.90;1.00;;;;;;7390644;19;20032;-67
2023/07/09 03:27:35;;;;;;;5.90;3.80;;;21.70;1.00;;;;;;7391143;19;20148;-68
2023/07/09 03:30:05;;;;;;;7.72;3.95;;;21.70;1.00;;;;;;7392137;19;20015;-68
2023/07/09 03:32:35;;;;;;;7.65;4.40;;;21.60;1.00;;;;;;7388951;19;20044;-67
2023/07/09 03:35:06;;;;;;;5.82;3.88;;;21.60;1.00;;;;;;7388625;19;20014;-67
2023/07/09 03:37:38;;;;;;;6.68;3.80;;;21.60;1.00;;;;;;7390506;19;20018;-67
2023/07/09 03:40:12;;;;;;;7.90;4.00;;;21.70;1.00;;;;;;7389142;19;20015;-67
2023/07/09 03:42:42;;;;;;;10.18;4.20;;;21.60;1.00;;;;;;7390294;19;20034;-67
2023/07/09 03:45:12;;;;;;;6.07;3.88;;;21.50;1.00;;;;;;7391567;19;20011;-67
2023/07/09 03:47:42;;;;;;;8.20;4.07;;;21.70;1.00;;;;;;7390304;19;20081;-67
2023/07/09 03:50:13;;;;;;;6.90;3.88;;;21.90;1.00;;;;;;7389203;19;20026;-67
2023/07/09 03:52:45;;;;;;;6.05;3.80;;;22.10;1.00;;;;;;7390081;19;20021;-67
2023/07/09 03:55:15;;;;;;;6.95;4.28;;;22.20;1.00;;;;;;7388974;19;20021;-67
2023/07/09 03:57:45;;;;;;;13.45;4.15;;;22.00;1.00;;;;;;7390061;19;20014;-67
2023/07/09 04:00:16;;;;;;;5.63;3.80;;;22.50;1.00;;;;;;7388764;19;20029;-67
2023/07/09 04:02:46;;;;;;;8.00;3.88;;;22.60;1.00;;;;;;7389799;19;20022;-68
2023/07/09 04:05:17;;;;;;;5.25;3.58;;;22.90;1.00;;;;;;7389013;19;20014;-67
2023/07/09 04:07:50;;;;;;;8.77;4.13;;;23.10;1.00;;;;;;7390045;19;20018;-68
2023/07/09 04:10:20;;;;;;;8.93;3.80;;;23.30;1.00;;;;;;7388591;19;20110;-67
2023/07/09 04:12:50;;;;;;;5.30;3.85;;;23.40;1.00;;;;;;7389310;19;20014;-67
2023/07/09 04:15:20;;;;;;;8.45;3.50;;;23.60;1.00;;;;;;7388015;19;20023;-67
2023/07/09 04:17:51;;;;;;;6.38;3.70;;;24.10;1.00;;;;;;7389371;19;20014;-68
2023/07/09 04:20:24;;;;;;;5.83;3.73;;;24.60;1.00;;;;;;7387837;19;20019;-68
2023/07/09 04:22:56;;;;;;;4.70;3.47;;;24.60;1.00;;;;;;7388296;19;20026;-68
2023/07/09 04:25:26;;;;;;;6.72;3.90;;;24.60;1.00;;;;;;7388668;19;20086;-67
2023/07/09 04:27:56;;;;;;;5.72;3.92;;;24.70;1.00;;;;;;7387302;19;20058;-68
2023/07/09 04:30:26;;;;;;;6.15;3.47;;;24.70;1.00;;;;;;7391119;19;20014;-68
2023/07/09 04:32:56;;;;;;;5.45;3.78;;;25.70;1.00;;;;;;7389123;19;20014;-67
2023/07/09 04:35:26;;;;;;;5.60;3.88;;;25.80;1.00;;;;;;7387529;19;20026;-67
2023/07/09 04:37:58;;;;;;;6.10;4.35;;;25.80;1.00;;;;;;7388491;19;20465;-68
2023/07/09 04:40:28;;;;;;;6.00;3.78;;;26.40;1.00;;;;;;7387406;19;20377;-68
2023/07/09 04:42:58;;;;;;;6.25;3.80;;;26.10;1.00;;;;;;7388818;19;20057;-68
2023/07/09 04:45:28;;;;;;;5.03;3.40;;;25.80;1.00;;;;;;7390450;19;20014;-67
2023/07/09 04:47:58;;;;;;;5.85;3.50;;;26.30;1.00;;;;;;7388255;19;20014;-68
2023/07/09 04:50:28;;;;;;;6.85;3.80;;;26.30;1.00;;;;;;7386969;19;20015;-68
2023/07/09 04:53:03;;;;;;;7.18;3.92;;;26.60;1.00;;;;;;7387951;19;20007;-68
2023/07/09 04:55:33;;;;;;;7.32;3.70;;;26.20;1.00;;;;;;7387415;19;20018;-69
2023/07/09 04:58:03;;;;;;;7.50;3.88;;;26.60;1.00;;;;;;7388598;19;20024;-68
2023/07/09 05:00:33;;;;;;;7.65;3.55;;;26.80;1.00;;;;;;7386804;19;20510;-69
2023/07/09 05:03:03;;;;;;;5.45;3.72;;;27.30;1.00;;;;;;7388393;19;20039;-69
2023/07/09 05:05:33;;;;;;;5.97;4.00;;;27.70;1.00;;;;;;7388408;19;20143;-68
2023/07/09 05:08:06;;;;;;;6.22;3.65;;;27.60;1.00;;;;;;7388089;19;20078;-69
2023/07/09 05:10:36;;;;;;;5.43;3.42;;;27.70;1.00;;;;;;7386097;19;20474;-69
2023/07/09 05:13:06;;;;;;;5.80;3.67;;;28.20;1.00;;;;;;7387250;19;20019;-69
2023/07/09 05:15:36;;;;;;;6.13;3.80;;;27.60;1.00;;;;;;7387066;19;20034;-67
2023/07/09 05:18:06;;;;;;;5.40;3.50;;;28.60;1.00;;;;;;7387882;19;20081;-67
2023/07/09 05:20:36;;;;;;;6.43;3.80;;;28.30;1.00;;;;;;7385861;19;20090;-67
2023/07/09 05:23:10;;;;;;;6.00;3.67;;;27.70;1.00;;;;;;7386901;19;20088;-67
2023/07/09 05:25:40;;;;;;;7.03;4.00;;;28.50;1.00;;;;;;7387370;19;20007;-68
2023/07/09 05:28:10;;;;;;;5.25;3.78;;;28.90;1.00;;;;;;7386892;19;20027;-68
2023/07/09 05:30:44;;;;;;;5.93;3.53;;;28.10;1.00;;;;;;7390068;19;20014;-68
2023/07/09 05:33:13;;;;;;;8.20;3.70;;;28.00;1.00;;;;;;7387161;19;20015;-70
2023/07/09 05:35:45;;;;;;;5.32;3.72;;;27.90;1.00;;;;;;7393074;19;20023;-68
2023/07/09 05:38:18;;;;;;;4.93;3.47;;;28.90;1.00;;;;;;7394062;19;20042;-68
2023/07/09 05:40:48;;;;;;;6.78;3.55;;;28.60;1.00;;;;;;7392645;19;20015;-68
2023/07/09 05:43:18;;;;;;;5.97;3.92;;;28.80;1.00;;;;;;7394321;19;20014;-69
2023/07/09 05:45:48;;;;;;;7.43;3.70;;;28.70;1.00;;;;;;7395848;19;19999;-69
2023/07/09 05:48:18;;;;;;;6.47;3.85;;;28.50;1.00;;;;;;7393585;19;20019;-69
2023/07/09 05:50:48;;;;;;;6.53;3.97;;;28.40;1.00;;;;;;7392487;19;20027;-69
2023/07/09 05:53:20;;;;;;;7.97;4.20;;;29.10;1.00;;;;;;7393741;19;20073;-68
2023/07/09 05:55:50;;;;;;;4.03;3.63;;;29.20;1.00;;;;;;7393652;19;20074;-68
2023/07/09 05:58:20;;;;;;;5.75;3.67;;;28.40;1.00;;;;;;7393639;19;20018;-68
2023/07/09 06:00:54;;;;;;;5.28;3.70;;;28.00;1.00;;;;;;7391588;19;20015;-68
2023/07/09 06:03:25;;;;;;;6.75;3.92;;;28.60;1.00;;;;;;7393366;19;20343;-68
2023/07/09 06:05:57;;;;;;;6.88;3.80;;;29.20;1.00;;;;;;7393609;19;20066;-68
2023/07/09 06:08:30;;;;;;;7.75;4.00;;;29.10;1.00;;;;;;7393068;19;20406;-68
2023/07/09 06:11:01;;;;;;;6.72;3.95;;;28.40;1.00;;;;;;7391678;19;20014;-67
2023/07/09 06:13:33;;;;;;;5.70;3.70;;;28.50;1.00;;;;;;7392300;19;20088;-70
2023/07/09 06:16:03;;;;;;;6.15;3.75;;;27.20;1.00;;;;;;7392977;19;20014;-68
2023/07/09 06:18:33;;;;;;;9.30;4.05;;;26.70;1.00;;;;;;7391388;19;20010;-69
2023/07/09 06:21:07;;;;;;;6.25;4.28;;;25.80;1.00;;;;;;7391583;19;20018;-68
2023/07/09 06:23:40;;;;;;;5.05;4.03;;;26.00;1.00;;;;;;7392962;19;20021;-68
2023/07/09 06:26:10;;;;;;;6.40;3.90;;;26.30;1.00;;;;;;7391108;19;20060;-68
2023/07/09 06:28:40;;;;;;;8.38;4.38;;;26.60;1.00;;;;;;7392711;19;20010;-67
2023/07/09 06:31:10;;;;;;;7.80;3.97;;;26.70;1.00;;;;;;7395520;19;20020;-68
2023/07/09 06:33:40;;;;;;;7.20;3.90;;;27.60;1.00;;;;;;7391883;19;20095;-68
2023/07/09 06:36:11;;;;;;;6.68;4.10;;;27.80;1.00;;;;;;7392033;19;20348;-69
2023/07/09 06:38:44;;;;;;;6.38;3.90;;;28.80;1.00;;;;;;7392749;19;20035;-68
2023/07/09 06:41:14;;;;;;;6.70;3.53;;;28.80;1.00;;;;;;7391003;19;20475;-68
2023/07/09 06:43:44;;;;;;;8.77;4.18;;;29.00;1.00;;;;;;7391921;19;20014;-69
2023/07/09 06:46:15;;;;;;;6.82;3.80;;;29.00;1.00;;;;;;7395682;19;20048;-67
2023/07/09 06:48:45;;;;;;;5.60;3.70;;;28.30;1.00;;;;;;7392353;19;20091;-69
2023/07/09 06:51:16;;;;;;;6.15;3.80;;;27.90;1.00;;;;;;7388644;19;20018;-69
2023/07/09 06:53:50;;;;;;;9.20;4.00;;;27.80;1.00;;;;;;7391585;19;20018;-69
2023/07/09 06:56:20;;;;;;;7.60;3.80;;;27.60;1.00;;;;;;7391514;19;20018;-69
2023/07/09 06:58:50;;;;;;;4.35;3.58;;;27.00;1.00;;;;;;7391727;19;20499;-69
2023/07/09 07:01:20;;;;;;;5.50;3.50;;;27.60;1.00;;;;;;7390000;19;20056;-68
2023/07/09 07:03:50;;;;;;;6.30;3.92;;;27.50;1.00;;;;;;7391024;19;20018;-70
2023/07/09 07:06:21;;;;;;;6.35;3.47;;;27.50;1.00;;;;;;7391572;19;20078;-68
2023/07/09 07:08:53;;;;;;;5.55;3.70;;;27.30;1.00;;;;;;7391496;19;20014;-69
2023/07/09 07:11:25;;;;;;;7.93;3.72;;;27.80;1.00;;;;;;7389122;19;20022;-69
2023/07/09 07:13:54;;;;;;;7.13;3.72;;;27.70;1.00;;;;;;7390264;19;20010;-68
2023/07/09 07:16:24;;;;;;;5.75;3.40;;;27.30;1.00;;;;;;7391078;19;20358;-68
2023/07/09 07:18:54;;;;;;;7.35;3.83;;;27.70;1.00;;;;;;7390782;19;20161;-69
2023/07/09 07:21:24;;;;;;;9.10;4.13;;;28.10;1.00;;;;;;7389244;19;20021;-69
2023/07/09 07:23:57;;;;;;;4.18;3.53;;;28.30;1.00;;;;;;7390652;19;20018;-68
2023/07/09 07:26:27;;;;;;;6.28;3.90;;;28.50;1.00;;;;;;7390655;19;20077;-69
2023/07/09 07:28:57;;;;;;;10.93;4.53;;;28.00;1.00;;;;;;7390942;19;20018;-68
2023/07/09 07:31:27;;;;;;;8.52;4.00;;;28.30;1.00;;;;;;7389102;19;20021;-68
2023/07/09 07:33:57;;;;;;;5.00;3.92;;;28.40;1.00;;;;;;7390508;19;20018;-69
2023/07/09 07:36:27;;;;;;;5.03;3.83;;;28.40;1.00;;;;;;7390980;19;20039;-68
2023/07/09 07:39:03;;;;;;;5.30;3.47;;;28.80;1.00;;;;;;7390281;19;20014;-69
2023/07/09 07:41:33;;;;;;;5.55;3.78;;;29.30;1.00;;;;;;7387542;19;20018;-69
2023/07/09 07:44:03;;;;;;;5.53;3.50;;;29.40;1.00;;;;;;7389828;19;20014;-69
2023/07/09 07:46:34;;;;;;;4.72;3.80;;;29.30;1.00;;;;;;7395041;19;20070;-69
2023/07/09 07:49:05;;;;;;;6.78;3.40;;;29.10;1.00;;;;;;7390330;19;20376;-69
2023/07/09 07:51:35;;;;;;;5.43;3.72;;;29.00;1.00;;;;;;7388749;19;20014;-69
2023/07/09 07:54:09;;;;;;;5.93;3.33;;;28.20;1.00;;;;;;7388963;19;20529;-68
2023/07/09 07:56:39;;;;;;;6.30;3.88;;;28.90;1.00;;;;;;7388582;19;20022;-67
2023/07/09 07:59:09;;;;;;;4.90;3.50;;;29.00;1.00;;;;;;7388462;19;20023;-70
2023/07/09 08:01:39;;;;;;;5.85;3.72;;;29.50;1.00;;;;;;7388057;19;20038;-69
2023/07/09 08:04:09;;;;;;;6.47;4.00;;;29.20;1.00;;;;;;7389110;19;20092;-68
2023/07/09 08:06:39;;;;;;;7.78;3.38;;;29.80;1.00;;;;;;7389919;19;20478;-69
2023/07/09 08:09:12;;;;;;;4.55;3.33;;;30.10;1.00;;;;;;7389936;19;20025;-69
2023/07/09 08:11:42;;;;;;;5.40;3.42;;;30.30;1.00;;;;;;7390122;19;20024;-69
2023/07/09 08:14:12;;;;;;;8.82;3.88;;;29.90;1.00;;;;;;7389324;19;20019;-69
2023/07/09 08:16:42;;;;;;;6.00;3.75;;;29.30;1.00;;;;;;7389568;19;20013;-69
2023/07/09 08:19:12;;;;;;;6.22;3.70;;;30.00;1.00;;;;;;7386807;19;20025;-68
2023/07/09 08:21:42;;;;;;;6.40;3.70;;;30.10;1.00;;;;;;7389770;19;20011;-69
2023/07/09 08:24:15;;;;;;;6.68;4.13;;;30.10;1.00;;;;;;7388702;19;20499;-68
2023/07/09 08:26:45;;;;;;;6.97;3.90;;;30.00;1.00;;;;;;7389236;19;20037;-68
2023/07/09 08:29:15;;;;;;;4.63;3.35;;;30.00;1.00;;;;;;7389819;19;20010;-70
2023/07/09 08:31:45;;;;;;;6.63;3.78;;;30.00;1.00;;;;;;7387913;19;20010;-69
2023/07/09 08:34:15;;;;;;;6.88;4.05;;;30.20;1.00;;;;;;7389135;19;20089;-67
2023/07/09 08:36:45;;;;;;;8.23;3.92;;;30.20;1.00;;;;;;7389265;19;20031;-69
2023/07/09 08:39:18;;;;;;;6.25;3.55;;;30.10;1.00;;;;;;7386983;19;20031;-70
2023/07/09 08:41:52;;;;;;;6.00;3.10;;;30.10;1.00;;;;;;7387930;19;20052;-68
2023/07/09 08:44:49;;;;;;;8.02;3.55;;;30.20;1.00;;;;;;7387502;19;20042;-70
2023/07/09 08:47:26;;;;;;;7.38;3.58;;;30.20;1.00;;;;;;7388446;19;20018;-69
2023/07/09 08:50:00;;;;;;;4.05;3.42;;;30.40;1.00;;;;;;7388201;19;20431;-69
2023/07/09 08:52:35;;;;;;;6.50;3.75;;;30.80;1.00;;;;;;7388715;19;20013;-69
2023/07/09 08:55:12;;;;;;;7.55;3.47;;;30.70;1.00;;;;;;7388132;19;20015;-69
2023/07/09 08:57:45;;;;;;;5.45;3.40;;;30.50;1.00;;;;;;7388497;19;20032;-69
2023/07/09 09:00:19;;;;;;;4.40;3.10;;;30.60;1.00;;;;;;7388031;19;20015;-68
2023/07/09 09:02:53;;;;;;;7.18;2.80;;;30.90;1.00;;;;;;7389228;19;20275;-69
2023/07/09 09:05:25;;;;;;;4.38;3.20;;;30.80;1.00;;;;;;7388685;19;20019;-69
2023/07/09 09:08:02;;;;;;;6.57;3.50;;;31.30;1.00;;;;;;7389663;19;20031;-69
2023/07/09 09:10:45;;;;;;;5.97;3.10;;;31.30;1.00;;;;;;7393640;19;20473;-68
2023/07/09 09:13:17;;;;;;;6.28;3.25;;;31.50;1.00;;;;;;7395858;19;20007;-69
2023/07/09 09:15:49;;;;;;;6.90;3.33;;;31.20;1.00;;;;;;7395848;19;20015;-69
2023/07/09 09:18:25;;;;;;;4.70;2.97;;;31.50;1.00;;;;;;7394692;19;20015;-68
2023/07/09 09:21:00;;;;;;;5.90;2.65;;;31.30;1.00;;;;;;7391921;19;20018;-69
2023/07/09 09:23:41;;;;;;;5.05;3.22;;;31.50;1.00;;;;;;7395175;19;20485;-70
2023/07/09 09:26:20;;;;;;;6.80;3.03;;;31.90;1.00;;;;;;7395304;19;20032;-68
2023/07/09 09:28:50;;;;;;;5.90;2.97;;;31.80;1.00;;;;;;7394738;19;20010;-69
2023/07/09 09:31:20;;;;;;;5.55;3.25;;;31.60;1.00;;;;;;7392111;19;20021;-68
2023/07/09 09:33:51;;;;;;;4.63;2.90;;;32.00;1.00;;;;;;7394541;19;20018;-69
2023/07/09 09:36:24;;;;;;;6.28;3.13;;;32.20;1.00;;;;;;7394805;19;20019;-69
2023/07/09 09:38:56;;;;;;;5.25;3.28;;;31.70;1.00;;;;;;7392278;19;20024;-68
2023/07/09 09:41:33;;;;;;;4.10;3.20;;;31.60;1.00;;;;;;7390273;19;20081;-69
2023/07/09 09:44:04;;;;;;;6.85;3.20;;;32.00;1.00;;;;;;7394785;19;20027;-69
2023/07/09 09:46:35;;;;;;;4.43;3.20;;;31.80;1.00;;;;;;7399151;19;20497;-69
2023/07/09 09:49:05;;;;;;;5.07;3.00;;;32.00;1.00;;;;;;7394032;19;20074;-69
2023/07/09 09:51:36;;;;;;;7.15;3.00;;;31.50;1.00;;;;;;7391158;19;20427;-67
2023/07/09 09:54:16;;;;;;;4.72;2.90;;;32.00;1.00;;;;;;7393552;19;20015;-68
2023/07/09 09:56:51;;;;;;;6.90;3.03;;;32.30;1.00;;;;;;7394117;19;20067;-69
2023/07/09 09:59:23;;;;;;;5.45;3.30;;;32.40;1.00;;;;;;7392106;19;20024;-69
2023/07/09 10:02:00;;;;;;;4.00;3.05;;;32.40;1.00;;;;;;7393795;19;20388;-68
2023/07/09 10:04:30;;;;;;;6.35;2.92;;;32.70;1.00;;;;;;7393060;19;20078;-68
2023/07/09 10:07:07;;;;;;;7.50;3.25;;;32.40;1.00;;;;;;7393843;19;20015;-70
2023/07/09 10:09:49;;;;;;;4.90;3.13;;;32.00;1.00;;;;;;7392844;19;20026;-69
2023/07/09 10:12:42;;;;;;;5.25;2.78;;;32.40;1.00;;;;;;7393799;19;20482;-69
2023/07/09 10:15:27;;;;;;;4.57;2.78;;;32.40;1.00;;;;;;7392770;19;20023;-70
2023/07/09 10:18:03;;;;;;;5.13;2.78;;;32.30;1.00;;;;;;7393429;19;20143;-69
2023/07/09 10:20:39;;;;;;;6.10;3.15;;;32.20;1.00;;;;;;7389645;19;20010;-68
2023/07/09 10:23:22;;;;;;;4.13;2.35;;;31.90;1.00;;;;;;7394009;19;20014;-69
2023/07/09 10:25:57;;;;;;;4.72;2.35;;;32.40;1.00;;;;;;7393260;19;20038;-69
2023/07/09 10:28:54;;;;;;;4.05;2.55;;;32.50;1.00;;;;;;7391762;19;20028;-69
2023/07/09 10:31:35;;;;;;;4.60;2.60;;;32.80;1.00;;;;;;7389989;19;20014;-69
2023/07/09 10:34:18;;;;;;;4.47;2.75;;;33.20;1.00;;;;;;7390957;19;20028;-70
2023/07/09 10:37:03;;;;;;;5.40;2.80;;;33.10;1.00;;;;;;7394116;19;20034;-68
2023/07/09 10:39:39;;;;;;;3.42;2.70;;;33.10;1.00;;;;;;7394892;19;20010;-69
2023/07/09 10:42:16;;;;;;;4.25;2.50;;;33.20;1.00;;;;;;7394359;19;20015;-69
2023/07/09 10:44:55;;;;;;;6.82;3.30;;;33.10;1.00;;;;;;7392948;19;20007;-70
2023/07/09 10:47:32;;;;;;;6.50;2.88;;;32.80;1.00;;;;;;7396907;19;20011;-69
2023/07/09 10:50:05;;;;;;;3.83;2.58;;;32.60;1.00;;;;;;7390707;19;20042;-69
2023/07/09 10:52:39;;;;;;;4.53;3.00;;;32.70;1.00;;;;;;7392000;19;20015;-69
2023/07/09 10:55:19;;;;;;;5.07;2.92;;;32.90;1.00;;;;;;7393986;19;20483;-68
2023/07/09 10:57:54;;;;;;;4.85;2.80;;;32.80;1.00;;;;;;7392397;19;20074;-70
2023/07/09 11:00:35;;;;;;;5.18;2.78;;;32.90;1.00;;;;;;7389848;19;20130;-70
2023/07/09 11:03:12;;;;;;;8.10;2.60;;;33.20;1.00;;;;;;7391994;19;20486;-70
2023/07/09 11:05:45;;;;;;;5.00;2.80;;;33.30;1.00;;;;;;7391476;19;20018;-70
2023/07/09 11:08:18;;;;;;;5.45;2.53;;;32.80;1.00;;;;;;7391886;19;20521;-70
2023/07/09 11:10:54;;;;;;;5.03;2.70;;;33.60;1.00;;;;;;7390468;19;20042;-70
2023/07/09 11:13:30;;;;;;;3.90;2.65;;;33.30;1.00;;;;;;7391194;19;20014;-69
2023/07/09 11:16:30;;;;;;;5.95;2.78;;;33.50;1.00;;;;;;7391630;19;20014;-69
2023/07/09 11:19:03;;;;;;;6.65;3.17;;;33.40;1.00;;;;;;7389997;19;20025;-70
2023/07/09 11:21:33;;;;;;;;;;;33.20;1.00;;;;;;7390107;19;20019;-69
2023/07/09 11:24:07;;;;;;;3.50;2.60;;;33.00;1.00;;;;;;7391380;19;19919;-69
2023/07/09 11:26:49;;;;;;;4.22;2.75;;;33.20;1.00;;;;;;7391452;19;20018;-69
2023/07/09 11:29:26;;;;;;;5.47;3.20;;;33.60;1.00;;;;;;7390033;19;20241;-69
2023/07/09 11:32:12;;;;;;;6.43;2.60;;;33.70;1.00;;;;;;7388948;19;20040;-70
2023/07/09 11:34:49;;;;;;;5.22;2.83;;;33.70;1.00;;;;;;7390992;19;20088;-70
2023/07/09 11:37:20;;;;;;;6.18;3.03;;;33.70;1.00;;;;;;7390955;19;20014;-69
2023/07/09 11:39:51;;;;;;;5.55;2.65;;;33.60;1.00;;;;;;7390279;19;20026;-69
2023/07/09 11:42:29;;;;;;;4.22;2.80;;;33.80;1.00;;;;;;7390454;19;20380;-69
2023/07/09 11:45:12;;;;;;;6.78;3.22;;;33.90;1.00;;;;;;7391744;19;20019;-68
2023/07/09 11:47:50;;;;;;;6.30;3.10;;;34.10;1.00;;;;;;7390976;19;20073;-69
2023/07/09 11:50:26;;;;;;;3.97;3.20;;;33.90;1.00;;;;;;7388029;19;20018;-69
2023/07/09 11:52:59;;;;;;;5.18;2.67;;;33.90;1.00;;;;;;7390327;19;20023;-70
2023/07/09 11:55:31;;;;;;;3.65;2.53;;;34.00;1.00;;;;;;7390173;19;20022;-69
2023/07/09 11:58:03;;;;;;;5.13;3.03;;;33.70;1.00;;;;;;7389641;19;20555;-68
2023/07/09 12:00:41;;;;;;;7.33;3.10;;;34.10;1.00;;;;;;7388582;19;20034;-70
2023/07/09 12:03:23;;;;;;;4.25;2.80;;;34.30;1.00;;;;;;7390372;19;20021;-70
2023/07/09 12:05:55;;;;;;;4.40;2.88;;;33.80;1.00;;;;;;7390237;19;20082;-69
2023/07/09 12:08:39;;;;;;;5.57;2.60;;;33.80;1.00;;;;;;7389885;19;20486;-70
2023/07/09 12:11:24;;;;;;;4.97;2.70;;;34.10;1.00;;;;;;7388309;19;20371;-70
2023/07/09 12:13:55;;;;;;;8.48;2.95;;;33.70;1.00;;;;;;7389656;19;20034;-70
2023/07/09 12:16:28;;;;;;;3.78;2.65;;;34.00;1.00;;;;;;7389653;19;20018;-69
2023/07/09 12:19:01;;;;;;;3.80;2.50;;;34.10;1.00;;;;;;7389926;19;20014;-69
2023/07/09 12:21:34;;;;;;;5.50;3.20;;;34.20;1.00;;;;;;7388088;19;20014;-69
2023/07/09 12:24:04;;;;;;;4.95;2.90;;;34.80;1.00;;;;;;7387379;19;20038;-70
2023/07/09 12:26:35;;;;;;;5.93;3.33;;;34.70;1.00;;;;;;7389117;19;20034;-68
2023/07/09 12:29:07;;;;;;;6.70;2.88;;;35.00;1.00;;;;;;7389513;19;20031;-70
2023/07/09 12:31:37;;;;;;;5.05;3.05;;;35.10;1.00;;;;;;7387595;19;20085;-69
2023/07/09 12:34:15;;;;;;;7.25;2.90;;;35.00;1.00;;;;;;7388838;19;20010;-69
2023/07/09 12:36:49;;;;;;;5.32;2.88;;;34.80;1.00;;;;;;7389139;19;20011;-70
2023/07/09 12:39:26;;;;;;;5.32;2.58;;;34.60;1.00;;;;;;7388866;19;20380;-70
2023/07/09 12:41:58;;;;;;;5.82;3.03;;;34.80;1.00;;;;;;7386954;19;20011;-70
2023/07/09 12:44:29;;;;;;;6.00;3.00;;;34.60;1.00;;;;;;7395549;19;20031;-69
2023/07/09 12:46:59;;;;;;;7.57;2.90;;;34.60;1.00;;;;;;7400395;19;20251;-69
2023/07/09 12:49:40;;;;;;;6.10;3.08;;;34.30;1.00;;;;;;7395470;19;20015;-68
2023/07/09 12:52:15;;;;;;;7.30;3.13;;;34.40;1.00;;;;;;7396274;19;20011;-70
2023/07/09 12:54:54;;;;;;;5.30;2.90;;;34.70;1.00;;;;;;7396160;19;20035;-70
2023/07/09 12:57:25;;;;;;;4.18;2.88;;;34.90;1.00;;;;;;7395842;19;20006;-69
2023/07/09 12:59:56;;;;;;;5.07;2.67;;;34.90;1.00;;;;;;7393256;19;20767;-69
2023/07/09 13:02:29;;;;;;;6.78;3.30;;;34.80;1.00;;;;;;7396307;19;20011;-69
2023/07/09 13:05:07;;;;;;;6.10;3.30;;;34.00;1.00;;;;;;7395700;19;20077;-69
2023/07/09 13:07:41;;;;;;;6.80;3.08;;;34.80;1.00;;;;;;7396205;19;20015;-69
2023/07/09 13:10:19;;;;;;;4.22;3.08;;;34.60;1.00;;;;;;7394624;19;20039;-67
2023/07/09 13:12:52;;;;;;;5.30;3.00;;;34.30;1.00;;;;;;7395512;19;20039;-69
2023/07/09 13:15:26;;;;;;;6.40;3.20;;;34.80;1.00;;;;;;7394948;19;20040;-70
2023/07/09 13:18:07;;;;;;;4.93;3.30;;;34.70;1.00;;;;;;7398108;19;20027;-69
2023/07/09 13:20:42;;;;;;;5.28;2.80;;;34.80;1.00;;;;;;7394985;19;20021;-70
2023/07/09 13:23:14;;;;;;;6.32;3.28;;;34.50;1.00;;;;;;7396869;19;20019;-69
2023/07/09 13:25:44;;;;;;;7.55;2.92;;;35.20;1.00;;;;;;7396083;19;20019;-69
2023/07/09 13:28:20;;;;;;;8.80;3.45;;;35.10;1.00;;;;;;7395582;19;20039;-69